createdAt,value
2022-08-04T00:01:03.399Z,20.60
2022-08-04T00:03:42.356Z,20.50
2022-08-04T00:06:19.905Z,20.40
2022-08-04T00:08:53.084Z,20.30
2022-08-04T00:11:31.231Z,20.20
2022-08-04T00:14:04.701Z,20.20
2022-08-04T00:16:38.742Z,20.20
2022-08-04T00:19:13.602Z,20.20
2022-08-04T00:21:49.562Z,20.20
2022-08-04T00:24:21.934Z,20.10
2022-08-04T00:26:53.463Z,20.00
2022-08-04T00:29:23.444Z,20.00
2022-08-04T00:31:55.108Z,20.00
2022-08-04T00:34:28.142Z,19.90
2022-08-04T00:36:58.486Z,19.80
2022-08-04T00:39:29.325Z,19.80
2022-08-04T00:42:23.289Z,19.70
2022-08-04T00:45:12.187Z,19.70
2022-08-04T00:47:56.062Z,19.80
2022-08-04T00:50:35.036Z,19.80
2022-08-04T00:53:09.681Z,19.70
2022-08-04T00:56:14.131Z,19.70
2022-08-04T00:59:04.732Z,19.60
2022-08-04T01:02:01.880Z,19.50
2022-08-04T01:04:44.040Z,19.50
2022-08-04T01:07:33.770Z,19.50
2022-08-04T01:10:11.261Z,19.50
2022-08-04T01:13:15.338Z,19.40
2022-08-04T01:16:00.404Z,19.40
2022-08-04T01:18:37.077Z,19.40
2022-08-04T01:21:27.814Z,19.40
2022-08-04T01:24:32.998Z,19.40
2022-08-04T01:27:07.165Z,19.40
2022-08-04T01:29:46.824Z,19.40
2022-08-04T01:32:25.870Z,19.30
2022-08-04T01:35:09.390Z,19.30
2022-08-04T01:37:55.939Z,19.30
2022-08-04T01:40:27.695Z,19.30
2022-08-04T01:42:59.793Z,19.30
2022-08-04T01:45:31.589Z,19.40
2022-08-04T01:48:01.869Z,19.30
2022-08-04T01:50:36.553Z,19.30
2022-08-04T01:53:06.097Z,19.30
2022-08-04T01:55:55.120Z,19.20
2022-08-04T01:58:25.925Z,19.10
2022-08-04T02:01:04.843Z,19.20
2022-08-04T02:04:19.517Z,19.20
2022-08-04T02:06:33.461Z,19.20
2022-08-04T02:09:13.654Z,19.10
2022-08-04T02:11:45.701Z,19.00
2022-08-04T02:14:38.528Z,19.00
2022-08-04T02:17:14.283Z,19.00
2022-08-04T02:19:59.633Z,18.90
2022-08-04T02:22:30.124Z,18.90
2022-08-04T02:25:04.548Z,18.80
2022-08-04T02:28:00.066Z,18.80
2022-08-04T02:30:35.546Z,18.70
2022-08-04T02:33:08.675Z,18.70
2022-08-04T02:35:39.919Z,18.60
2022-08-04T02:38:18.477Z,18.60
2022-08-04T02:40:59.125Z,18.60
2022-08-04T02:43:50.814Z,18.60
2022-08-04T02:46:20.792Z,18.60
2022-08-04T02:48:53.059Z,18.50
2022-08-04T02:51:25.159Z,18.60
2022-08-04T02:53:57.105Z,18.60
2022-08-04T02:56:29.101Z,18.50
2022-08-04T02:59:01.543Z,18.50
2022-08-04T03:01:30.680Z,18.50
2022-08-04T03:04:24.748Z,18.50
2022-08-04T03:07:16.743Z,18.50
2022-08-04T03:10:07.822Z,18.40
2022-08-04T03:13:01.522Z,18.40
2022-08-04T03:15:59.707Z,18.30
2022-08-04T03:19:24.004Z,18.40
2022-08-04T03:22:29.144Z,18.50
2022-08-04T03:25:27.234Z,18.50
2022-08-04T03:28:19.230Z,18.50
2022-08-04T03:31:05.089Z,18.50
2022-08-04T03:33:49.461Z,18.40
2022-08-04T03:37:04.279Z,18.40
2022-08-04T03:40:18.130Z,18.40
2022-08-04T03:43:56.837Z,18.50
2022-08-04T03:46:59.320Z,18.70
2022-08-04T03:50:00.778Z,19.10
2022-08-04T03:53:11.871Z,19.50
2022-08-04T03:56:15.984Z,20.10
2022-08-04T03:59:10.099Z,20.60
2022-08-04T04:02:02.325Z,20.90
2022-08-04T04:04:59.579Z,21.50
2022-08-04T04:08:18.673Z,21.70
2022-08-04T04:11:22.636Z,22.00
2022-08-04T04:14:22.873Z,22.20
2022-08-04T04:17:06.454Z,22.60
2022-08-04T04:19:58.566Z,22.60
2022-08-04T04:22:51.239Z,22.70
2022-08-04T04:25:32.055Z,23.10
2022-08-04T04:28:43.786Z,23.70
2022-08-04T04:31:34.565Z,24.00
2022-08-04T04:34:14.266Z,24.10
2022-08-04T04:36:53.807Z,24.60
2022-08-04T04:39:33.218Z,24.60
2022-08-04T04:42:12.622Z,25.30
2022-08-04T04:45:06.914Z,25.80
2022-08-04T04:48:08.375Z,26.40
2022-08-04T04:51:00.232Z,25.80
2022-08-04T04:53:34.437Z,26.20
2022-08-04T04:56:13.441Z,26.00
2022-08-04T04:58:43.974Z,26.30
2022-08-04T05:01:34.136Z,26.90
2022-08-04T05:04:24.838Z,27.10
2022-08-04T05:07:11.419Z,26.20
2022-08-04T05:09:54.998Z,26.50
2022-08-04T05:14:35.505Z,27.10
2022-08-04T05:15:53.835Z,26.90
2022-08-04T05:18:26.201Z,27.20
2022-08-04T05:21:00.212Z,26.70
2022-08-04T05:23:32.769Z,27.20
2022-08-04T05:26:05.370Z,27.20
2022-08-04T05:28:37.884Z,26.90
2022-08-04T05:31:14.256Z,26.60
2022-08-04T05:33:51.315Z,27.10
2022-08-04T05:36:40.134Z,27.00
2022-08-04T05:39:15.966Z,27.80
2022-08-04T05:41:48.034Z,27.70
2022-08-04T05:44:25.931Z,27.40
2022-08-04T05:46:59.189Z,26.50
2022-08-04T05:49:29.745Z,26.00
2022-08-04T05:52:02.841Z,25.90
2022-08-04T05:54:33.549Z,26.00
2022-08-04T05:57:04.883Z,25.80
2022-08-04T05:59:35.620Z,25.80
2022-08-04T06:02:07.325Z,26.00
2022-08-04T06:04:39.613Z,26.20
2022-08-04T06:07:09.060Z,26.20
2022-08-04T06:09:38.273Z,26.10
2022-08-04T06:12:12.296Z,26.20
2022-08-04T06:14:44.758Z,26.30
2022-08-04T06:19:56.105Z,26.40
2022-08-04T06:20:20.007Z,26.70
2022-08-04T06:22:55.274Z,26.70
2022-08-04T06:25:29.451Z,26.60
2022-08-04T06:27:59.531Z,26.50
2022-08-04T06:30:29.445Z,26.50
2022-08-04T06:33:04.967Z,26.40
2022-08-04T06:35:35.336Z,26.70
2022-08-04T06:38:05.734Z,26.80
2022-08-04T06:40:35.970Z,26.70
2022-08-04T06:43:07.671Z,26.70
2022-08-04T06:45:41.329Z,26.80
2022-08-04T06:48:16.253Z,27.00
2022-08-04T06:51:32.185Z,27.20
2022-08-04T06:53:37.124Z,27.40
2022-08-04T06:56:06.523Z,27.60
2022-08-04T06:58:36.489Z,27.60
2022-08-04T07:01:06.313Z,27.50
2022-08-04T07:03:37.560Z,27.50
2022-08-04T07:06:08.439Z,27.50
2022-08-04T07:08:43.867Z,27.70
2022-08-04T07:11:13.874Z,27.90
2022-08-04T07:13:45.493Z,28.00
2022-08-04T07:16:16.289Z,28.10
2022-08-04T07:18:46.904Z,28.00
2022-08-04T07:21:22.398Z,28.10
2022-08-04T07:23:51.924Z,28.30
2022-08-04T07:26:20.629Z,28.50
2022-08-04T07:28:49.503Z,28.50
2022-08-04T07:31:34.047Z,28.60
2022-08-04T07:34:17.757Z,28.80
2022-08-04T07:36:52.864Z,28.80
2022-08-04T07:39:28.307Z,29.10
2022-08-04T07:42:01.473Z,29.20
2022-08-04T07:44:32.303Z,29.20
2022-08-04T07:47:02.331Z,29.10
2022-08-04T07:49:55.446Z,29.10
2022-08-04T07:52:22.948Z,29.30
2022-08-04T07:54:52.596Z,29.40
2022-08-04T07:57:41.045Z,29.40
2022-08-04T08:00:14.320Z,29.60
2022-08-04T08:02:44.167Z,29.60
2022-08-04T08:05:16.890Z,29.50
2022-08-04T08:07:50.891Z,29.60
2022-08-04T08:10:23.819Z,29.50
2022-08-04T08:12:53.454Z,29.70
2022-08-04T08:15:23.104Z,29.80
2022-08-04T08:17:58.368Z,30.20
2022-08-04T08:20:34.263Z,30.30
2022-08-04T08:23:03.906Z,30.40
2022-08-04T08:25:34.103Z,30.40
2022-08-04T08:28:05.240Z,30.40
2022-08-04T08:30:34.988Z,30.50
2022-08-04T08:33:08.561Z,30.50
2022-08-04T08:35:53.400Z,30.70
2022-08-04T08:38:38.707Z,30.70
2022-08-04T08:41:51.889Z,31.00
2022-08-04T08:44:58.225Z,31.10
2022-08-04T08:48:04.871Z,30.70
2022-08-04T08:53:59.381Z,30.80
2022-08-04T08:56:36.988Z,31.00
2022-08-04T08:59:31.126Z,31.10
2022-08-04T09:02:29.843Z,31.30
2022-08-04T09:05:17.220Z,31.20
2022-08-04T09:08:03.353Z,31.10
2022-08-04T09:10:42.660Z,31.20
2022-08-04T09:13:24.587Z,31.40
2022-08-04T09:16:00.871Z,31.50
2022-08-04T09:18:39.019Z,31.40
2022-08-04T09:21:14.804Z,31.60
2022-08-04T09:23:53.131Z,31.60
2022-08-04T09:26:28.855Z,31.70
2022-08-04T09:29:06.602Z,31.60
2022-08-04T09:31:52.952Z,31.30
2022-08-04T09:35:03.089Z,31.30
2022-08-04T09:37:45.627Z,31.50
2022-08-04T09:40:29.047Z,31.70
2022-08-04T09:43:14.791Z,31.80
2022-08-04T09:45:50.564Z,31.90
2022-08-04T09:48:29.776Z,31.90
2022-08-04T09:51:00.856Z,31.90
2022-08-04T09:53:43.687Z,32.00
2022-08-04T09:56:23.540Z,32.00
2022-08-04T09:59:03.184Z,32.10
2022-08-04T10:01:33.488Z,31.90
2022-08-04T10:04:04.507Z,31.90
2022-08-04T10:06:43.988Z,32.00
2022-08-04T10:09:32.062Z,32.10
2022-08-04T10:12:14.103Z,32.20
2022-08-04T10:14:54.407Z,32.30
2022-08-04T10:17:51.938Z,32.30
2022-08-04T10:20:44.814Z,32.10
2022-08-04T10:23:24.930Z,31.90
2022-08-04T10:26:08.471Z,31.90
2022-08-04T10:28:44.503Z,31.70
2022-08-04T10:31:20.551Z,31.60
2022-08-04T10:33:54.534Z,31.60
2022-08-04T10:36:28.167Z,31.70
2022-08-04T10:39:02.837Z,31.70
2022-08-04T10:41:39.513Z,31.60
2022-08-04T10:44:23.755Z,31.70
2022-08-04T10:46:58.807Z,31.60
2022-08-04T10:49:36.163Z,31.80
2022-08-04T10:52:09.988Z,31.80
2022-08-04T10:54:48.897Z,31.80
2022-08-04T10:57:24.916Z,31.90
2022-08-04T11:00:03.604Z,32.00
2022-08-04T11:02:42.897Z,32.30
2022-08-04T11:05:21.924Z,32.30
2022-08-04T11:07:53.745Z,32.40
2022-08-04T11:10:25.511Z,32.50
2022-08-04T11:13:00.629Z,32.50
2022-08-04T11:15:36.305Z,32.30
2022-08-04T11:18:16.484Z,32.20
2022-08-04T11:20:53.003Z,32.30
2022-08-04T11:23:28.161Z,31.90
2022-08-04T11:26:02.126Z,31.70
2022-08-04T11:28:44.018Z,31.80
2022-08-04T11:31:15.672Z,31.70
2022-08-04T11:33:53.667Z,31.90
2022-08-04T11:36:29.764Z,32.10
2022-08-04T11:39:02.972Z,32.10
2022-08-04T11:41:42.205Z,32.20
2022-08-04T11:44:18.287Z,32.50
2022-08-04T11:46:52.413Z,32.30
2022-08-04T11:49:31.282Z,32.20
2022-08-04T11:52:21.891Z,32.10
2022-08-04T11:54:54.712Z,32.40
2022-08-04T11:57:35.398Z,32.50
2022-08-04T12:00:10.714Z,32.60
2022-08-04T12:03:13.899Z,32.80
2022-08-04T12:05:56.383Z,32.60
2022-08-04T12:08:41.588Z,32.70
2022-08-04T12:11:28.516Z,32.90
2022-08-04T12:14:05.429Z,32.80
2022-08-04T12:16:42.939Z,32.80
2022-08-04T12:19:18.811Z,32.40
2022-08-04T12:21:55.808Z,32.30
2022-08-04T12:24:32.290Z,32.30
2022-08-04T12:27:09.642Z,32.30
2022-08-04T12:29:40.679Z,32.50
2022-08-04T12:32:21.167Z,32.80
2022-08-04T12:34:58.555Z,33.00
2022-08-04T12:37:49.369Z,32.90
2022-08-04T12:40:29.896Z,33.00
2022-08-04T12:43:10.200Z,33.10
2022-08-04T12:45:48.849Z,33.00
2022-08-04T12:48:21.577Z,32.60
2022-08-04T12:50:53.892Z,32.40
2022-08-04T12:53:32.188Z,32.30
2022-08-04T12:56:02.836Z,32.10
2022-08-04T12:58:42.118Z,32.10
2022-08-04T13:02:06.750Z,31.80
2022-08-04T13:04:13.073Z,32.20
2022-08-04T13:06:43.282Z,32.60
2022-08-04T13:09:19.362Z,32.70
2022-08-04T13:11:52.303Z,32.60
2022-08-04T13:14:27.798Z,32.50
2022-08-04T13:17:01.302Z,32.30
2022-08-04T13:19:31.779Z,32.40
2022-08-04T13:22:10.937Z,32.30
2022-08-04T13:24:56.545Z,32.60
2022-08-04T13:27:43.323Z,32.20
2022-08-04T13:30:23.136Z,32.10
2022-08-04T13:32:57.016Z,32.30
2022-08-04T13:35:55.347Z,32.40
2022-08-04T13:38:18.956Z,32.50
2022-08-04T13:40:50.422Z,32.60
2022-08-04T13:44:16.152Z,32.60
2022-08-04T13:46:27.186Z,32.90
2022-08-04T13:51:57.290Z,33.00
2022-08-04T13:54:30.348Z,33.10
2022-08-04T13:57:03.403Z,33.10
2022-08-04T13:59:38.009Z,33.00
2022-08-04T14:02:10.037Z,32.90
2022-08-04T14:04:42.965Z,33.00
2022-08-04T14:07:16.186Z,32.80
2022-08-04T14:10:03.751Z,32.90
2022-08-04T14:12:38.811Z,32.50
2022-08-04T14:16:02.196Z,32.20
2022-08-04T14:18:25.955Z,32.20
2022-08-04T14:21:05.510Z,32.40
2022-08-04T14:23:51.675Z,32.40
2022-08-04T14:26:31.507Z,32.80
2022-08-04T14:29:27.149Z,32.70
2022-08-04T14:32:10.597Z,32.50
2022-08-04T14:34:45.180Z,32.50
2022-08-04T14:37:19.409Z,32.50
2022-08-04T14:40:18.507Z,32.50
2022-08-04T14:42:42.608Z,32.40
2022-08-04T14:45:13.283Z,32.60
2022-08-04T14:47:52.362Z,32.50
2022-08-04T14:50:33.309Z,32.40
2022-08-04T14:53:05.139Z,32.20
2022-08-04T14:55:33.956Z,32.10
2022-08-04T14:58:35.156Z,32.20
2022-08-04T15:00:56.391Z,32.10
2022-08-04T15:03:25.751Z,32.00
2022-08-04T15:06:02.689Z,31.90
2022-08-04T15:08:35.520Z,31.80
2022-08-04T15:11:04.065Z,32.00
2022-08-04T15:13:33.554Z,32.10
2022-08-04T15:16:08.081Z,32.10
2022-08-04T15:18:38.955Z,32.10
2022-08-04T15:21:09.271Z,31.90
2022-08-04T15:23:40.164Z,32.10
2022-08-04T15:26:16.915Z,32.20
2022-08-04T15:28:51.626Z,32.20
2022-08-04T15:32:07.132Z,31.80
2022-08-04T15:34:13.736Z,31.60
2022-08-04T15:36:57.204Z,31.40
2022-08-04T15:39:36.948Z,31.40
2022-08-04T15:42:20.844Z,31.70
2022-08-04T15:45:20.199Z,31.90
2022-08-04T15:48:34.996Z,32.30
2022-08-04T15:51:07.006Z,32.30
2022-08-04T15:54:08.729Z,32.20
2022-08-04T15:56:48.282Z,32.40
2022-08-04T16:00:02.112Z,32.50
2022-08-04T16:02:43.919Z,32.30
2022-08-04T16:05:41.650Z,32.00
2022-08-04T16:08:19.535Z,32.10
2022-08-04T16:10:50.749Z,32.20
2022-08-04T16:13:21.742Z,32.30
2022-08-04T16:15:53.136Z,32.40
2022-08-04T16:18:40.265Z,32.50
2022-08-04T16:21:23.282Z,32.10
2022-08-04T16:24:05.876Z,32.10
2022-08-04T16:26:55.031Z,32.10
2022-08-04T16:29:36.143Z,32.00
2022-08-04T16:32:23.740Z,31.70
2022-08-04T16:34:59.884Z,31.70
2022-08-04T16:37:35.610Z,31.40
2022-08-04T16:40:33.347Z,31.40
2022-08-04T16:43:05.312Z,31.20
2022-08-04T16:45:51.375Z,31.10
2022-08-04T16:48:21.113Z,31.00
2022-08-04T16:51:05.848Z,30.90
2022-08-04T16:53:53.316Z,30.70
2022-08-04T16:56:29.887Z,30.50
2022-08-04T16:58:58.721Z,30.50
2022-08-04T17:01:33.217Z,30.60
2022-08-04T17:04:06.457Z,30.70
2022-08-04T17:06:38.035Z,30.60
2022-08-04T17:09:12.252Z,30.70
2022-08-04T17:11:41.644Z,30.70
2022-08-04T17:14:10.507Z,30.80
2022-08-04T17:16:41.766Z,30.90
2022-08-04T17:19:19.884Z,30.90
2022-08-04T17:21:57.601Z,31.00
2022-08-04T17:24:30.739Z,30.90
2022-08-04T17:26:59.915Z,30.80
2022-08-04T17:29:44.654Z,30.40
2022-08-04T17:32:19.780Z,30.30
2022-08-04T17:34:49.745Z,30.20
2022-08-04T17:37:40.137Z,30.40
2022-08-04T17:40:14.131Z,30.50
2022-08-04T17:42:45.157Z,30.50
2022-08-04T17:45:51.356Z,30.50
2022-08-04T17:48:09.995Z,30.20
2022-08-04T17:50:43.764Z,29.80
2022-08-04T17:53:13.438Z,29.60
2022-08-04T17:55:46.967Z,29.40
2022-08-04T17:58:20.954Z,29.00
2022-08-04T18:01:23.756Z,28.80
2022-08-04T18:03:51.858Z,28.60
2022-08-04T18:06:25.586Z,28.50
2022-08-04T18:08:59.512Z,28.40
2022-08-04T18:11:55.150Z,28.20
2022-08-04T18:14:28.761Z,27.90
2022-08-04T18:16:57.905Z,27.70
2022-08-04T18:19:26.511Z,27.60
2022-08-04T18:22:01.141Z,27.60
2022-08-04T18:24:35.934Z,27.40
2022-08-04T18:27:23.798Z,27.30
2022-08-04T18:33:10.614Z,26.90
2022-08-04T18:36:33.029Z,26.90
2022-08-04T18:38:23.636Z,26.80
2022-08-04T18:40:54.697Z,26.70
2022-08-04T18:43:28.665Z,26.60
2022-08-04T18:46:14.585Z,26.50
2022-08-04T18:48:45.251Z,26.50
2022-08-04T18:51:23.838Z,26.40
2022-08-04T18:53:55.124Z,26.30
2022-08-04T18:56:32.862Z,26.20
2022-08-04T18:59:05.053Z,26.10
2022-08-04T19:02:16.925Z,26.10
2022-08-04T19:04:33.864Z,26.00
2022-08-04T19:07:28.699Z,25.90
2022-08-04T19:09:57.637Z,25.80
2022-08-04T19:12:29.138Z,25.80
2022-08-04T19:15:10.522Z,25.70
2022-08-04T19:17:52.557Z,25.70
2022-08-04T19:20:25.993Z,25.70
2022-08-04T19:24:11.696Z,25.70
2022-08-04T19:26:01.136Z,25.60
2022-08-04T19:28:35.469Z,25.60
2022-08-04T19:31:07.977Z,25.50
2022-08-04T19:33:59.450Z,25.40
2022-08-04T19:36:29.088Z,25.30
2022-08-04T19:39:01.292Z,25.20
2022-08-04T19:41:31.961Z,25.00
2022-08-04T19:44:00.750Z,24.90
2022-08-04T19:46:30.684Z,24.80
2022-08-04T19:49:00.816Z,24.70
2022-08-04T19:51:32.631Z,24.70
2022-08-04T19:54:04.041Z,24.70
2022-08-04T19:56:40.645Z,24.60
2022-08-04T19:59:10.937Z,24.50
2022-08-04T20:01:45.217Z,24.50
2022-08-04T20:04:14.733Z,24.50
2022-08-04T20:06:43.606Z,24.50
2022-08-04T20:09:25.705Z,24.40
2022-08-04T20:11:56.832Z,24.30
2022-08-04T20:14:32.869Z,24.30
2022-08-04T20:17:09.991Z,24.30
2022-08-04T20:19:39.781Z,24.20
2022-08-04T20:22:50.609Z,24.10
2022-08-04T20:25:11.106Z,24.00
2022-08-04T20:27:59.374Z,23.90
2022-08-04T20:30:29.540Z,23.90
2022-08-04T20:33:00.787Z,23.90
2022-08-04T20:35:29.881Z,23.80
2022-08-04T20:38:01.330Z,23.80
2022-08-04T20:40:30.474Z,23.70
2022-08-04T20:42:59.601Z,23.60
2022-08-04T20:45:56.545Z,23.50
2022-08-04T20:48:18.255Z,23.50
2022-08-04T20:50:47.099Z,23.50
2022-08-04T20:53:17.238Z,23.40
2022-08-04T20:55:54.770Z,23.30
2022-08-04T20:58:27.641Z,23.20
2022-08-04T21:00:57.456Z,23.30
2022-08-04T21:03:49.686Z,23.20
2022-08-04T21:06:16.645Z,23.20
2022-08-04T21:08:57.271Z,23.10
2022-08-04T21:11:32.839Z,23.10
2022-08-04T21:14:01.882Z,23.10
2022-08-04T21:19:22.499Z,23.10
2022-08-04T21:21:53.839Z,23.00
2022-08-04T21:24:26.142Z,23.00
2022-08-04T21:26:57.362Z,23.00
2022-08-04T21:29:35.285Z,23.00
2022-08-04T21:32:05.874Z,22.90
2022-08-04T21:34:39.943Z,22.90
2022-08-04T21:37:11.207Z,22.90
2022-08-04T21:39:50.770Z,22.80
2022-08-04T21:42:30.621Z,22.70
2022-08-04T21:45:00.093Z,22.70
2022-08-04T21:47:46.167Z,22.70
2022-08-04T21:50:20.411Z,22.60
2022-08-04T21:52:49.974Z,22.60
2022-08-04T21:55:19.654Z,22.50
2022-08-04T21:57:49.531Z,22.40
2022-08-04T22:00:21.304Z,22.40
2022-08-04T22:02:53.363Z,22.30
2022-08-04T22:05:25.286Z,22.30
2022-08-04T22:07:54.208Z,22.20
2022-08-04T22:10:32.668Z,22.20
2022-08-04T22:13:02.977Z,22.10
2022-08-04T22:16:03.507Z,22.00
2022-08-04T22:18:27.918Z,22.00
2022-08-04T22:20:58.598Z,21.90
2022-08-04T22:23:29.118Z,21.90
2022-08-04T22:25:58.828Z,21.90
2022-08-04T22:28:28.425Z,21.90
2022-08-04T22:30:58.111Z,21.80
2022-08-04T22:33:53.786Z,21.80
2022-08-04T22:36:18.769Z,21.80
2022-08-04T22:38:54.267Z,21.80
2022-08-04T22:41:34.362Z,21.70
2022-08-04T22:44:16.505Z,21.70
2022-08-04T22:46:45.312Z,21.70
2022-08-04T22:49:14.351Z,21.70
2022-08-04T22:51:48.292Z,21.70
2022-08-04T22:54:19.311Z,21.70
2022-08-04T22:56:47.928Z,21.60
2022-08-04T22:59:16.533Z,21.60
2022-08-04T23:01:59.102Z,21.60
2022-08-04T23:04:31.757Z,21.60
2022-08-04T23:07:05.156Z,21.50
2022-08-04T23:09:50.942Z,21.50
2022-08-04T23:12:26.112Z,21.40
2022-08-04T23:14:56.515Z,21.40
2022-08-04T23:17:27.366Z,21.40
2022-08-04T23:19:59.200Z,21.40
2022-08-04T23:22:41.187Z,21.30
2022-08-04T23:25:16.076Z,21.20
2022-08-04T23:27:51.091Z,21.20
2022-08-04T23:30:29.518Z,21.10
2022-08-04T23:32:59.471Z,21.10
2022-08-04T23:35:28.679Z,21.10
2022-08-04T23:38:00.108Z,21.10
2022-08-04T23:40:50.577Z,21.00
2022-08-04T23:43:19.900Z,21.00
2022-08-04T23:46:07.031Z,21.00
2022-08-04T23:48:37.018Z,20.90
2022-08-04T23:51:14.915Z,20.80
2022-08-04T23:54:01.630Z,20.90
2022-08-04T23:56:34.582Z,20.90
2022-08-04T23:59:04.669Z,20.90
